Time;durP1;ratioP1;P1;durP2;ratioP2;P2;SDS_P1;SDS_P2;PMS_P1;PMS_P2;Temp;Humidity;BMP_temperature;BMP_pressure;BME280_temperature;BME280_humidity;BME280_pressure;Samples;Min_cycle;Max_cycle;Signal;HPM_P1;HPM_P2
2022/04/01 00:02:21;;;;;;;34.30;6.63;;;;;;;17.03;83.20;98489.94;5035155;28;20224;-75
2022/04/01 00:04:48;;;;;;;20.88;5.05;;;;;;;16.91;83.93;98479.88;5035203;28;20231;-75
2022/04/01 00:07:15;;;;;;;21.67;5.50;;;;;;;16.93;83.81;98465.00;5032288;28;20630;-75
2022/04/01 00:09:42;;;;;;;23.52;6.05;;;;;;;16.94;84.27;98471.09;5032353;28;20270;-77
2022/04/01 00:12:10;;;;;;;19.00;6.68;;;;;;;16.96;84.88;98482.34;5032463;28;20622;-75
2022/04/01 00:14:37;;;;;;;26.13;6.38;;;;;;;16.95;84.53;98476.25;5047058;28;20198;-75
2022/04/01 00:17:06;;;;;;;18.23;5.68;;;;;;;16.83;85.10;98447.91;5040215;28;20212;-76
2022/04/01 00:19:33;;;;;;;16.40;5.43;;;;;;;16.84;83.64;98442.63;5025321;28;20204;-75
2022/04/01 00:22:00;;;;;;;31.50;5.38;;;;;;;16.86;84.31;98487.06;5031569;28;20286;-75
2022/04/01 00:24:27;;;;;;;24.60;5.43;;;;;;;17.06;80.96;98492.44;5032319;28;20652;-76
2022/04/01 00:26:54;;;;;;;34.47;6.32;;;;;;;17.13;79.79;98478.19;5031819;28;20208;-76
2022/04/01 00:29:20;;;;;;;21.73;5.30;;;;;;;16.95;80.12;98472.78;5031935;28;20679;-77
2022/04/01 00:31:58;;;;;;;21.73;5.25;;;;;;;16.96;80.80;98504.16;5047316;28;20195;-75
2022/04/01 00:34:27;;;;;;;19.58;5.93;;;;;;;17.03;80.85;98503.03;5051496;28;20199;-75
2022/04/01 00:36:54;;;;;;;27.05;5.70;;;;;;;16.78;82.20;98495.19;5049467;28;20644;-75
2022/04/01 00:39:22;;;;;;;33.70;5.72;;;;;;;16.75;83.61;98508.38;5043498;28;20208;-75
2022/04/01 00:41:49;;;;;;;22.75;6.63;;;;;;;16.63;85.14;98521.88;4997400;28;20199;-76
2022/04/01 00:44:17;;;;;;;31.40;5.90;;;;;;;16.23;85.05;98449.09;5032139;28;20290;-76
2022/04/01 00:46:46;;;;;;;19.65;5.50;;;;;;;16.35;85.67;98506.25;5031754;28;20262;-75
2022/04/01 00:49:13;;;;;;;23.08;6.68;;;;;;;16.39;86.32;98507.00;5043726;28;20195;-75
2022/04/01 00:51:43;;;;;;;24.50;6.10;;;;;;;16.47;86.28;98517.22;5041804;28;20207;-76
2022/04/01 00:54:11;;;;;;;26.77;6.15;;;;;;;16.01;85.77;98416.78;5035712;28;20210;-76
2022/04/01 00:56:38;;;;;;;25.95;5.28;;;;;;;16.60;84.29;98498.44;4999803;28;20262;-76
2022/04/01 00:59:06;;;;;;;17.20;5.03;;;;;;;16.16;83.99;98418.03;5057052;28;20200;-76
2022/04/01 01:01:34;;;;;;;26.42;6.03;;;;;;;16.59;82.76;98490.63;5033668;28;20602;-76
2022/04/01 01:04:02;;;;;;;29.02;6.45;;;;;;;16.48;83.76;98500.63;5049056;28;20259;-75
2022/04/01 01:06:31;;;;;;;21.42;5.53;;;;;;;16.72;81.97;98499.78;5058775;28;20740;-76
2022/04/01 01:09:00;;;;;;;22.38;5.28;;;;;;;16.70;81.71;98491.13;5052055;28;20303;-76
2022/04/01 01:11:27;;;;;;;26.52;5.13;;;;;;;16.47;82.88;98470.13;5002952;28;20672;-76
2022/04/01 01:13:54;;;;;;;19.23;5.03;;;;;;;16.54;83.81;98479.47;5049186;28;20215;-76
2022/04/01 01:16:21;;;;;;;30.35;5.97;;;;;;;16.46;84.54;98469.25;5043448;28;20257;-76
2022/04/01 01:19:00;;;;;;;17.55;5.97;;;;;;;16.29;86.19;98472.47;5049287;28;20218;-76
2022/04/01 01:21:27;;;;;;;20.80;6.13;;;;;;;16.24;88.29;98481.34;5051346;28;20286;-75
2022/04/01 01:24:00;;;;;;;13.05;4.25;;;;;;;16.37;87.14;98470.41;5015863;28;20314;-76
2022/04/01 01:26:28;;;;;;;23.77;4.93;;;;;;;16.36;87.00;98442.56;5038248;28;20200;-77
2022/04/01 01:28:57;;;;;;;20.88;4.47;;;;;;;16.38;86.59;98438.13;5030933;28;20625;-76
2022/04/01 01:31:24;;;;;;;23.05;5.45;;;;;;;16.42;85.98;98438.00;5032278;28;20234;-77
2022/04/01 01:33:52;;;;;;;20.77;5.20;;;;;;;16.30;85.24;98402.69;5047433;28;20207;-76
2022/04/01 01:36:19;;;;;;;20.30;5.60;;;;;;;16.44;84.90;98418.78;5054526;28;20233;-76
2022/04/01 01:38:46;;;;;;;20.33;4.63;;;;;;;16.33;85.19;98407.81;5047419;28;20196;-76
2022/04/01 01:41:14;;;;;;;26.98;5.10;;;;;;;16.37;85.29;98418.09;5034850;28;20196;-76
2022/04/01 01:43:42;;;;;;;31.85;5.57;;;;;;;16.41;84.48;98379.63;5036674;28;20318;-76
2022/04/01 01:46:09;;;;;;;25.73;4.65;;;;;;;16.44;83.26;98362.97;5054490;28;20211;-76
2022/04/01 01:48:36;;;;;;;17.67;4.65;;;;;;;16.48;84.51;98388.13;5048756;28;20223;-75
2022/04/01 01:56:32;;;;;;;25.95;5.70;;;;;;;16.45;85.34;98407.38;5053544;28;20215;-76
2022/04/01 01:59:00;;;;;;;24.75;6.03;;;;;;;16.33;85.63;98419.16;5054178;28;20227;-76
2022/04/01 02:01:27;;;;;;;25.25;6.13;;;;;;;16.33;85.69;98400.84;5054485;28;20675;-76
2022/04/01 02:03:54;;;;;;;28.85;5.65;;;;;;;16.33;86.35;98429.59;5037835;28;20587;-75
2022/04/01 02:06:21;;;;;;;33.60;5.40;;;;;;;16.35;86.51;98427.78;4999598;28;20652;-75
2022/04/01 02:08:50;;;;;;;16.20;4.57;;;;;;;16.38;86.58;98411.13;5042021;28;20678;-76
2022/04/01 02:11:17;;;;;;;22.95;4.85;;;;;;;16.30;87.86;98415.78;5041950;28;20266;-76
2022/04/01 02:13:44;;;;;;;17.55;4.82;;;;;;;16.15;89.02;98411.94;5036219;28;20213;-76
2022/04/01 02:16:12;;;;;;;28.77;5.63;;;;;;;16.22;88.47;98421.28;5023050;28;20200;-76
2022/04/01 02:18:39;;;;;;;17.25;4.13;;;;;;;16.25;88.87;98410.69;5035104;28;20196;-75
2022/04/01 02:21:10;;;;;;;15.13;5.07;;;;;;;16.25;88.69;98400.25;5033859;28;20215;-76
2022/04/01 02:23:38;;;;;;;18.77;5.03;;;;;;;16.46;87.25;98389.91;5039863;28;20219;-76
2022/04/01 02:26:05;;;;;;;22.55;5.05;;;;;;;16.45;87.12;98373.38;5053483;28;20199;-76
2022/04/01 02:28:32;;;;;;;29.27;5.30;;;;;;;16.56;86.24;98373.00;5053320;28;20295;-75
2022/04/01 02:30:59;;;;;;;11.82;3.38;;;;;;;16.53;86.25;98367.84;5052118;28;20669;-75
2022/04/01 02:33:27;;;;;;;19.58;4.28;;;;;;;16.48;86.88;98367.19;5033232;28;20200;-75
2022/04/01 02:35:57;;;;;;;18.33;4.93;;;;;;;16.27;87.01;98356.56;5046107;28;20659;-76
2022/04/01 02:38:25;;;;;;;22.65;5.28;;;;;;;16.43;87.34;98382.19;5053080;28;20192;-75
2022/04/01 02:40:52;;;;;;;21.77;4.65;;;;;;;16.29;88.35;98385.28;5053465;28;20196;-77
2022/04/01 02:43:19;;;;;;;11.55;4.57;;;;;;;16.25;88.89;98374.09;5044389;28;20222;-76
2022/04/01 02:45:48;;;;;;;24.00;6.05;;;;;;;16.28;89.48;98394.91;5037641;28;20671;-75
2022/04/01 02:48:15;;;;;;;21.52;5.80;;;;;;;16.12;90.14;98378.06;5052077;28;20195;-76
2022/04/01 02:50:44;;;;;;;34.20;9.20;;;;;;;16.33;100.00;98372.06;5036282;28;20475;-76
2022/04/01 02:53:10;;;;;;;22.83;5.38;;;;;;;16.35;91.50;98391.16;5050951;28;20257;-77
2022/04/01 02:55:37;;;;;;;19.17;6.03;;;;;;;16.11;93.47;98393.78;5051876;28;20192;-76
2022/04/01 02:58:05;;;;;;;20.45;5.57;;;;;;;15.77;92.43;98315.66;5039374;28;20221;-78
2022/04/01 03:00:32;;;;;;;13.95;4.13;;;;;;;16.13;93.51;98394.56;5014443;28;20232;-77
2022/04/01 03:02:59;;;;;;;26.77;5.40;;;;;;;16.09;94.46;98392.97;5033460;28;20270;-77
2022/04/01 03:05:27;;;;;;;15.40;5.20;;;;;;;16.00;95.34;98411.59;5053130;28;20235;-78
2022/04/01 03:07:55;;;;;;;17.02;5.25;;;;;;;15.94;98.60;98402.19;5050207;28;20664;-78
2022/04/01 03:10:23;;;;;;;18.02;5.30;;;;;;;15.95;98.24;98401.28;5043146;28;20311;-78
2022/04/01 03:12:50;;;;;;;11.95;5.28;;;;;;;16.01;98.35;98389.78;5046316;28;20797;-78
2022/04/01 03:15:17;;;;;;;22.88;5.50;;;;;;;15.78;98.45;98351.34;5038832;28;20204;-79
2022/04/01 03:17:45;;;;;;;15.52;4.35;;;;;;;15.94;99.34;98391.75;5043138;28;20277;-78
2022/04/01 03:20:13;;;;;;;10.77;3.63;;;;;;;15.98;98.88;98380.25;5048977;28;20195;-78
2022/04/01 03:22:41;;;;;;;30.00;6.57;;;;;;;15.85;100.00;98378.97;5053537;28;20199;-76
2022/04/01 03:25:13;;;;;;;14.77;3.90;;;;;;;15.85;100.00;98390.28;5042025;28;20310;-81
2022/04/01 03:27:40;;;;;;;28.30;6.50;;;;;;;15.62;100.00;98361.47;5049345;28;20203;-77
2022/04/01 03:30:09;;;;;;;24.15;5.07;;;;;;;15.93;99.98;98392.63;5034733;28;20658;-78
2022/04/01 03:32:37;;;;;;;25.80;5.28;;;;;;;15.91;99.15;98385.78;5034368;28;20227;-78
2022/04/01 03:35:06;;;;;;;24.17;5.43;;;;;;;15.81;99.53;98387.81;5037965;28;20214;-78
2022/04/01 03:37:33;;;;;;;35.72;4.70;;;;;;;15.70;99.01;98369.00;5038602;28;20281;-78
2022/04/01 03:40:00;;;;;;;19.63;5.15;;;;;;;15.91;98.72;98389.22;5013243;28;20199;-78
2022/04/01 03:42:30;;;;;;;19.60;5.63;;;;;;;15.81;100.00;98393.91;5044597;28;20200;-78
2022/04/01 03:44:58;;;;;;;24.00;5.32;;;;;;;15.74;100.00;98396.75;5039407;28;20212;-78
2022/04/01 03:47:34;;;;;;;22.08;5.95;;;;;;;15.67;100.00;98371.72;5046943;28;21354;-78
2022/04/01 03:50:04;;;;;;;14.60;4.43;;;;;;;15.93;99.01;98382.19;5041264;28;20644;-78
2022/04/01 03:52:33;;;;;;;20.42;5.13;;;;;;;16.01;97.39;98379.31;5039984;28;20199;-78
2022/04/01 03:55:05;;;;;;;20.95;5.00;;;;;;;15.91;96.64;98352.63;5017265;28;20683;-79
2022/04/01 03:57:36;;;;;;;15.00;4.28;;;;;;;16.05;96.00;98375.69;5052406;28;20231;-77
2022/04/01 04:00:04;;;;;;;32.30;6.05;;;;;;;15.98;96.51;98377.63;5052269;28;20200;-78
2022/04/01 04:02:34;;;;;;;22.73;5.50;;;;;;;15.94;95.77;98357.75;5045861;28;20207;-78
2022/04/01 04:05:01;;;;;;;24.98;6.63;;;;;;;16.11;94.55;98381.56;4997636;28;20746;-78
2022/04/01 04:07:29;;;;;;;28.85;5.28;;;;;;;16.10;94.71;98377.22;5032969;28;20291;-77
2022/04/01 04:09:57;;;;;;;21.15;5.78;;;;;;;16.02;94.56;98358.34;5045958;28;20207;-79
2022/04/01 04:12:24;;;;;;;28.02;6.63;;;;;;;15.98;94.68;98375.03;5033100;28;20200;-78
2022/04/01 04:14:54;;;;;;;21.77;6.40;;;;;;;16.02;94.65;98376.63;5051213;28;20214;-78
2022/04/01 04:17:35;;;;;;;17.85;5.35;;;;;;;16.05;94.74;98381.75;5048669;28;20188;-78
2022/04/01 04:20:08;;;;;;;20.42;6.13;;;;;;;15.90;96.86;98374.44;5050458;28;20203;-77
2022/04/01 04:22:50;;;;;;;19.17;4.53;;;;;;;15.71;97.80;98348.06;5052134;28;20214;-77
2022/04/01 04:25:21;;;;;;;20.77;5.43;;;;;;;15.85;97.93;98381.56;5052715;28;20234;-77
2022/04/01 04:27:55;;;;;;;47.75;12.05;;;;;;;15.84;97.53;98392.94;5039385;28;20203;-80
2022/04/01 04:30:29;;;;;;;29.65;7.07;;;;;;;15.71;96.50;98344.59;5033180;28;20207;-77
2022/04/01 04:33:02;;;;;;;27.42;7.22;;;;;;;15.94;96.06;98385.66;4997615;28;20204;-78
2022/04/01 04:35:30;;;;;;;19.73;5.80;;;;;;;15.72;95.51;98351.53;5051208;28;20249;-77
2022/04/01 04:37:58;;;;;;;33.28;5.20;;;;;;;15.70;95.56;98348.13;5060590;28;20606;-76
2022/04/01 04:40:26;;;;;;;32.30;6.75;;;;;;;15.89;96.69;98398.88;5062064;28;20249;-76
2022/04/01 04:42:54;;;;;;;36.53;7.18;;;;;;;15.74;97.13;98374.09;5051783;28;20710;-77
2022/04/01 04:45:24;;;;;;;25.85;6.38;;;;;;;15.91;97.78;98402.28;5037370;28;20287;-77
2022/04/01 04:47:53;;;;;;;34.10;7.40;;;;;;;15.86;97.88;98386.78;5051848;28;20313;-77
2022/04/01 04:50:21;;;;;;;31.33;6.30;;;;;;;15.94;96.87;98396.97;5051941;28;20207;-78
2022/04/01 04:52:50;;;;;;;38.45;5.72;;;;;;;16.07;94.80;98389.56;5043471;28;20210;-78
2022/04/01 04:55:18;;;;;;;29.90;6.45;;;;;;;16.23;92.83;98396.81;5046503;28;20204;-77
2022/04/01 04:57:47;;;;;;;32.15;7.05;;;;;;;16.15;93.18;98388.41;5039787;28;20661;-77
2022/04/01 05:00:19;;;;;;;46.75;7.38;;;;;;;16.29;91.99;98395.75;5051371;28;20355;-77
2022/04/01 05:03:07;;;;;;;29.48;6.57;;;;;;;16.40;90.30;98371.84;5035980;28;20208;-78
2022/04/01 05:05:40;;;;;;;39.55;7.30;;;;;;;16.46;89.54;98382.94;5026284;28;20305;-77
2022/04/01 05:08:17;;;;;;;38.70;7.15;;;;;;;16.51;88.86;98383.63;5031581;28;20196;-77
2022/04/01 05:10:54;;;;;;;22.20;6.13;;;;;;;16.52;87.66;98374.00;5045273;28;20199;-78
2022/04/01 05:13:25;;;;;;;36.00;7.03;;;;;;;16.84;85.84;98397.25;5025543;28;20205;-77
2022/04/01 05:15:54;;;;;;;30.30;5.32;;;;;;;16.97;83.82;98395.91;5011530;28;20215;-77
2022/04/01 05:18:29;;;;;;;31.67;8.40;;;;;;;17.06;83.37;98387.69;5011766;28;20295;-77
2022/04/01 05:21:01;;;;;;;27.80;6.88;;;;;;;17.11;82.25;98385.75;5012155;28;20277;-77
2022/04/01 05:23:41;;;;;;;21.67;6.22;;;;;;;17.08;81.54;98383.25;5046644;28;20207;-77
2022/04/01 05:26:12;;;;;;;38.22;7.78;;;;;;;16.97;81.50;98354.00;5051088;28;20206;-79
2022/04/01 05:28:46;;;;;;;45.88;9.27;;;;;;;17.04;81.27;98355.50;5051248;28;20230;-79
2022/04/01 05:31:20;;;;;;;41.20;8.07;;;;;;;17.20;79.40;98363.56;5051232;28;20676;-77
2022/04/01 05:33:57;;;;;;;43.65;7.25;;;;;;;17.37;78.43;98374.28;5040080;28;20204;-77
2022/04/01 05:36:25;;;;;;;29.70;7.20;;;;;;;17.56;77.29;98384.84;5031734;28;20676;-77
2022/04/01 05:38:54;;;;;;;37.90;8.45;;;;;;;17.19;77.56;98318.19;5051696;28;20586;-77
2022/04/01 05:41:22;;;;;;;40.03;8.52;;;;;;;17.52;77.18;98378.88;5050354;28;20686;-77
2022/04/01 05:43:50;;;;;;;30.58;6.70;;;;;;;17.51;75.86;98337.03;5051438;28;20253;-77
2022/04/01 05:46:17;;;;;;;48.05;7.85;;;;;;;17.63;75.83;98376.72;5051395;28;20204;-77
2022/04/01 05:48:45;;;;;;;47.78;8.45;;;;;;;17.29;75.37;98295.97;5050892;28;20257;-77
2022/04/01 05:51:15;;;;;;;39.45;8.02;;;;;;;17.65;74.26;98332.09;5050520;28;20223;-77
2022/04/01 05:53:44;;;;;;;31.05;7.47;;;;;;;17.71;74.38;98358.06;5050979;28;20286;-78
2022/04/01 05:56:12;;;;;;;41.72;7.43;;;;;;;17.72;74.15;98357.16;5050680;28;20203;-78
2022/04/01 05:58:40;;;;;;;24.70;5.25;;;;;;;17.82;73.12;98356.69;5050363;28;20191;-77
2022/04/01 06:01:15;;;;;;;47.30;9.02;;;;;;;18.06;72.31;98352.19;5050548;28;20204;-78
2022/04/01 06:04:15;;;;;;;21.85;5.95;;;;;;;18.10;70.64;98342.41;5050412;28;20191;-77
2022/04/01 06:06:46;;;;;;;45.80;7.75;;;;;;;18.42;69.93;98375.09;4989027;28;20208;-79
2022/04/01 06:09:29;;;;;;;52.15;8.50;;;;;;;18.68;68.54;98365.22;4988926;28;20252;-78
2022/04/01 06:12:01;;;;;;;45.58;8.93;;;;;;;18.81;67.66;98371.59;4988901;28;20201;-78
2022/04/01 06:14:36;;;;;;;44.42;9.93;;;;;;;18.94;67.01;98366.63;4988933;28;20368;-77
2022/04/01 06:17:09;;;;;;;52.35;8.80;;;;;;;18.97;66.23;98356.00;4988823;28;20236;-77
2022/04/01 06:19:44;;;;;;;40.38;8.25;;;;;;;19.09;65.76;98365.06;4957921;28;20221;-78
2022/04/01 06:22:17;;;;;;;23.42;5.45;;;;;;;19.13;65.12;98358.75;4992231;28;20201;-77
2022/04/01 06:25:01;;;;;;;41.22;8.27;;;;;;;19.11;64.95;98342.22;4992266;28;20229;-76
2022/04/01 06:27:34;;;;;;;45.95;8.05;;;;;;;19.13;64.97;98348.22;4992223;28;20757;-78
2022/04/01 06:30:05;;;;;;;47.75;8.55;;;;;;;19.11;63.95;98331.69;4992188;28;20205;-77
2022/04/01 06:32:41;;;;;;;44.83;10.40;;;;;;;19.33;64.09;98364.75;4992242;28;20236;-77
2022/04/01 06:35:15;;;;;;;51.13;9.52;;;;;;;19.45;63.38;98347.56;4992306;28;20328;-77
2022/04/01 06:37:53;;;;;;;45.88;8.02;;;;;;;19.51;63.06;98359.59;4991797;28;20204;-77
2022/04/01 06:40:24;;;;;;;37.35;7.10;;;;;;;19.21;62.19;98302.28;4992054;28;20704;-77
2022/04/01 06:42:53;;;;;;;43.10;9.10;;;;;;;19.70;61.84;98341.97;5000926;28;20203;-77
2022/04/01 06:45:20;;;;;;;40.13;9.23;;;;;;;19.67;61.36;98352.63;5053247;28;20304;-77
2022/04/01 06:47:47;;;;;;;52.83;8.88;;;;;;;19.79;61.47;98352.91;5053369;28;20310;-77
2022/04/01 06:50:16;;;;;;;34.13;7.07;;;;;;;19.69;61.29;98324.50;5053560;28;20204;-77
2022/04/01 06:52:45;;;;;;;50.22;7.35;;;;;;;19.99;60.68;98370.31;5053184;28;20663;-77
2022/04/01 06:55:12;;;;;;;42.10;8.90;;;;;;;19.94;59.94;98353.88;5053121;28;20214;-77
2022/04/01 06:57:39;;;;;;;38.75;8.10;;;;;;;20.33;59.86;98360.72;5053203;28;20199;-77
2022/04/01 07:00:08;;;;;;;52.28;9.20;;;;;;;20.39;58.67;98356.00;5018148;28;20602;-77
2022/04/01 07:02:36;;;;;;;43.60;8.68;;;;;;;20.63;58.06;98357.31;5053286;28;20200;-77
2022/04/01 07:05:02;;;;;;;40.78;8.25;;;;;;;20.60;58.25;98351.38;5052948;28;20231;-78
2022/04/01 07:07:29;;;;;;;37.55;8.85;;;;;;;20.09;59.16;98347.00;5053004;28;20207;-78
2022/04/01 07:09:58;;;;;;;44.20;7.88;;;;;;;20.29;59.64;98373.19;5053121;28;20702;-77
2022/04/01 07:12:24;;;;;;;32.25;6.30;;;;;;;20.23;59.54;98353.25;5052825;28;20206;-78
2022/04/01 07:14:51;;;;;;;65.95;9.70;;;;;;;20.44;59.09;98356.56;5052806;28;20206;-78
2022/04/01 07:17:18;;;;;;;39.92;7.70;;;;;;;20.57;58.50;98362.06;5053068;28;20199;-79
2022/04/01 07:19:45;;;;;;;46.92;8.70;;;;;;;20.46;58.28;98324.91;5053012;28;20195;-78
2022/04/01 07:22:12;;;;;;;54.70;7.75;;;;;;;20.68;58.07;98343.91;5052736;28;20192;-78
2022/04/01 07:24:39;;;;;;;41.13;7.63;;;;;;;20.65;57.57;98344.91;5052581;28;20326;-78
2022/04/01 07:27:08;;;;;;;42.35;7.38;;;;;;;20.61;57.23;98316.22;5052606;28;20210;-78
2022/04/01 07:29:35;;;;;;;57.63;9.57;;;;;;;20.66;57.14;98322.06;5052649;28;20195;-79
2022/04/01 07:34:47;;;;;;;39.60;8.13;;;;;;;20.89;57.01;98358.56;5052496;28;20349;-78
2022/04/01 07:37:14;;;;;;;42.20;6.85;;;;;;;20.92;57.57;98353.13;5053281;28;20253;-78
2022/04/01 07:39:41;;;;;;;48.50;10.38;;;;;;;21.14;56.57;98366.00;5052907;28;20195;-77
2022/04/01 07:42:09;;;;;;;44.72;8.93;;;;;;;21.27;56.30;98344.16;5052881;28;20231;-79
2022/04/01 07:44:36;;;;;;;38.22;8.50;;;;;;;21.24;55.43;98339.06;5052545;28;20253;-78
2022/04/01 07:47:09;;;;;;;45.67;7.90;;;;;;;21.55;55.15;98358.41;5052729;28;20195;-80
2022/04/01 07:49:36;;;;;;;54.50;8.77;;;;;;;21.78;54.36;98357.94;5053141;28;20199;-80
2022/04/01 07:52:02;;;;;;;51.72;9.50;;;;;;;21.83;54.31;98357.69;5052394;28;20200;-80
2022/04/01 07:54:29;;;;;;;44.60;9.52;;;;;;;21.69;53.99;98340.00;5052658;28;20207;-78
2022/04/01 07:56:56;;;;;;;58.72;9.77;;;;;;;21.98;53.01;98355.03;5052197;28;20195;-77
2022/04/01 07:59:25;;;;;;;57.35;10.70;;;;;;;21.84;53.40;98360.22;5051862;28;20199;-78
2022/04/01 08:01:52;;;;;;;46.50;8.18;;;;;;;21.92;52.91;98352.75;5052119;28;20592;-78
2022/04/01 08:04:19;;;;;;;46.33;10.25;;;;;;;21.94;53.04;98329.75;5052517;28;20254;-78
2022/04/01 08:06:46;;;;;;;51.92;9.32;;;;;;;22.23;52.65;98347.34;5017357;28;20258;-78
2022/04/01 08:09:13;;;;;;;53.22;9.52;;;;;;;22.12;52.74;98355.06;5051813;28;20207;-77
2022/04/01 08:11:40;;;;;;;54.85;9.20;;;;;;;22.00;53.19;98352.31;5051551;28;20206;-77
2022/04/01 08:14:06;;;;;;;47.80;8.38;;;;;;;21.98;52.72;98341.81;5051869;28;20211;-77
2022/04/01 08:16:35;;;;;;;44.80;9.10;;;;;;;22.00;52.54;98339.09;5051947;28;20207;-77
2022/04/01 08:19:03;;;;;;;39.35;10.65;;;;;;;21.99;52.16;98358.50;5051617;28;20195;-77
2022/04/01 08:21:30;;;;;;;39.47;7.60;;;;;;;22.06;52.09;98354.56;5033333;28;20211;-77
2022/04/01 08:23:57;;;;;;;50.00;9.35;;;;;;;22.32;51.75;98337.19;5036166;28;20191;-77
2022/04/01 08:26:24;;;;;;;51.92;9.85;;;;;;;22.50;50.93;98328.16;5063445;28;20238;-78
2022/04/01 08:28:51;;;;;;;54.55;9.70;;;;;;;22.48;50.80;98340.56;5024647;28;20206;-77
2022/04/01 08:31:19;;;;;;;59.72;9.75;;;;;;;22.73;50.35;98322.31;5063471;28;20198;-76
2022/04/01 08:33:48;;;;;;;44.60;8.57;;;;;;;22.86;49.92;98328.53;5055687;28;20200;-77
2022/04/01 08:36:16;;;;;;;49.28;9.10;;;;;;;22.83;50.10;98320.78;5051851;28;20199;-77
2022/04/01 08:38:43;;;;;;;52.50;9.57;;;;;;;22.92;49.88;98333.44;5032826;28;20204;-77
2022/04/01 08:41:10;;;;;;;42.78;8.70;;;;;;;23.02;50.06;98333.69;5051042;28;20642;-77
2022/04/01 08:43:40;;;;;;;49.03;8.73;;;;;;;23.19;49.16;98344.91;5050975;28;20199;-78
2022/04/01 08:46:08;;;;;;;34.33;6.93;;;;;;;22.78;48.68;98307.03;5050796;28;20255;-76
2022/04/01 08:48:36;;;;;;;26.27;6.55;;;;;;;22.74;49.19;98287.03;5050800;28;20218;-76
2022/04/01 08:51:05;;;;;;;48.45;8.30;;;;;;;23.18;48.82;98337.06;5050717;28;20200;-77
2022/04/01 08:53:36;;;;;;;67.88;10.93;;;;;;;23.09;48.22;98305.91;5051088;28;20207;-77
2022/04/01 08:56:03;;;;;;;41.65;8.13;;;;;;;23.08;48.03;98313.00;5050968;28;20204;-76
2022/04/01 08:58:29;;;;;;;63.03;8.80;;;;;;;23.23;47.93;98277.66;5050613;28;20678;-75
2022/04/01 09:00:59;;;;;;;47.85;9.07;;;;;;;23.64;47.33;98312.00;5032149;28;20195;-78
2022/04/01 09:03:27;;;;;;;61.67;10.07;;;;;;;23.33;46.86;98299.03;5050865;28;20651;-77
2022/04/01 09:05:56;;;;;;;51.13;9.70;;;;;;;23.53;46.54;98264.25;5050465;28;20234;-77
2022/04/01 09:08:30;;;;;;;52.47;8.85;;;;;;;23.92;45.88;98281.03;5050751;28;20207;-78
2022/04/01 09:10:58;;;;;;;54.78;9.57;;;;;;;24.26;45.24;98298.16;5050910;28;20204;-78
2022/04/01 09:13:27;;;;;;;49.88;9.93;;;;;;;24.25;45.02;98294.66;5015567;28;20249;-78
2022/04/01 09:15:55;;;;;;;44.28;8.52;;;;;;;24.33;44.82;98287.00;5050632;28;20647;-76
2022/04/01 09:18:41;;;;;;;61.28;10.45;;;;;;;24.25;44.76;98272.63;5050593;28;20199;-78
2022/04/01 09:21:09;;;;;;;74.10;9.35;;;;;;;24.23;45.11;98285.94;5050838;28;20199;-77
2022/04/01 09:23:38;;;;;;;48.50;9.38;;;;;;;24.41;44.50;98283.81;5050823;28;20199;-79
2022/04/01 09:26:06;;;;;;;48.47;7.22;;;;;;;24.39;44.38;98291.03;5050892;28;20231;-79
2022/04/01 09:28:34;;;;;;;45.00;8.70;;;;;;;24.17;45.32;98287.25;5051248;28;20203;-78
2022/04/01 09:31:06;;;;;;;62.85;9.85;;;;;;;24.41;43.84;98294.41;5050706;28;20587;-79
2022/04/01 09:33:47;;;;;;;72.03;10.73;;;;;;;24.40;42.41;98271.56;5051094;28;20206;-80
2022/04/01 09:36:15;;;;;;;47.83;9.32;;;;;;;24.63;42.45;98268.13;5050863;28;20203;-79
2022/04/01 09:38:55;;;;;;;51.80;9.95;;;;;;;24.66;41.75;98262.59;5050618;28;20207;-78
2022/04/01 09:41:22;;;;;;;62.47;9.90;;;;;;;24.85;41.10;98294.84;5050639;28;20734;-78
2022/04/01 09:43:48;;;;;;;50.45;10.00;;;;;;;25.17;41.24;98293.34;5050324;28;20199;-76
2022/04/01 09:46:27;;;;;;;54.40;9.45;;;;;;;24.76;40.31;98242.41;5050612;28;20223;-78
2022/04/01 09:48:56;;;;;;;67.57;9.32;;;;;;;24.82;40.27;98260.56;5050438;28;20195;-76
2022/04/01 09:51:24;;;;;;;54.83;9.48;;;;;;;24.91;40.78;98270.53;5050587;28;20575;-78
2022/04/01 09:53:54;;;;;;;55.58;9.50;;;;;;;24.99;40.02;98273.47;5051259;28;20203;-76
2022/04/01 09:56:36;;;;;;;65.75;10.38;;;;;;;25.02;39.58;98261.78;5054341;28;20218;-76
2022/04/01 09:59:04;;;;;;;61.28;10.57;;;;;;;25.09;39.51;98255.94;5054653;28;20199;-77
2022/04/01 10:01:31;;;;;;;52.00;9.25;;;;;;;25.22;39.61;98261.16;5054280;28;20494;-77
2022/04/01 10:03:58;;;;;;;60.92;11.27;;;;;;;24.93;39.84;98226.19;5054157;28;20196;-76
2022/04/01 10:06:25;;;;;;;60.83;11.27;;;;;;;25.33;39.09;98236.53;5054108;28;20738;-75
2022/04/01 10:08:55;;;;;;;65.75;8.52;;;;;;;25.36;39.15;98228.34;5054146;28;20203;-77
2022/04/01 10:11:23;;;;;;;44.53;8.82;;;;;;;25.46;38.84;98221.38;5035787;28;20208;-76
2022/04/01 10:13:52;;;;;;;66.30;10.60;;;;;;;25.52;38.20;98216.47;5054061;28;20206;-77
2022/04/01 10:16:21;;;;;;;66.72;10.18;;;;;;;25.42;37.08;98201.31;5053869;28;20207;-77
2022/04/01 10:18:48;;;;;;;50.33;9.27;;;;;;;25.52;37.08;98224.44;5054230;28;20200;-76
2022/04/01 10:21:18;;;;;;;61.08;9.80;;;;;;;25.77;36.52;98210.16;5053755;28;20557;-75
2022/04/01 10:23:52;;;;;;;72.90;11.00;;;;;;;25.95;37.03;98203.41;5054148;28;20285;-77
2022/04/01 10:26:22;;;;;;;38.60;8.00;;;;;;;25.96;37.32;98210.44;5053517;28;20710;-75
2022/04/01 10:28:52;;;;;;;58.25;9.77;;;;;;;25.75;37.17;98201.47;5053966;28;20230;-76
2022/04/01 10:31:20;;;;;;;39.85;9.18;;;;;;;25.79;36.47;98196.75;5053611;28;20683;-76
2022/04/01 10:33:48;;;;;;;60.25;9.35;;;;;;;25.77;36.67;98188.91;5053462;28;20687;-77
2022/04/01 10:36:16;;;;;;;47.88;9.43;;;;;;;25.88;36.26;98170.34;5053761;28;20207;-77
2022/04/01 10:38:43;;;;;;;64.07;9.43;;;;;;;25.76;37.16;98197.81;5053223;28;20196;-76
2022/04/01 10:41:12;;;;;;;61.67;9.70;;;;;;;25.88;36.72;98165.03;5053895;28;20203;-76
2022/04/01 10:43:42;;;;;;;61.03;10.65;;;;;;;26.32;36.51;98187.28;5053391;28;20199;-77
2022/04/01 10:46:10;;;;;;;26.65;7.20;;;;;;;25.97;36.69;98156.31;5053340;28;20726;-77
2022/04/01 10:51:41;;;;;;;60.75;9.63;;;;;;;26.37;36.31;98175.31;5001850;28;20214;-76
2022/04/01 10:54:37;;;;;;;48.33;8.88;;;;;;;26.71;35.98;98162.81;5020597;28;20203;-77
2022/04/01 10:57:07;;;;;;;52.33;9.73;;;;;;;26.56;36.18;98167.56;5021974;28;20240;-77
2022/04/01 10:59:41;;;;;;;58.72;9.45;;;;;;;26.91;36.31;98135.47;5030137;28;20208;-77
2022/04/01 11:02:10;;;;;;;62.97;9.50;;;;;;;26.90;36.08;98159.50;5033927;28;20265;-76
2022/04/01 11:04:39;;;;;;;50.53;9.02;;;;;;;26.87;36.24;98154.44;5033536;28;20239;-77
2022/04/01 11:07:09;;;;;;;53.63;9.30;;;;;;;26.93;36.23;98154.78;5033901;28;20578;-77
2022/04/01 11:09:46;;;;;;;59.42;10.73;;;;;;;27.13;35.31;98150.50;5033842;28;20211;-77
2022/04/01 11:12:34;;;;;;;40.92;7.57;;;;;;;26.30;35.64;98096.19;5034027;28;20253;-77
2022/04/01 11:15:17;;;;;;;50.38;9.60;;;;;;;26.67;36.16;98134.78;5034162;28;20199;-76
2022/04/01 11:18:07;;;;;;;63.17;10.75;;;;;;;26.47;36.58;98138.22;5034170;28;20242;-78
2022/04/01 11:20:35;;;;;;;56.05;10.65;;;;;;;26.65;36.10;98123.41;5034334;28;20208;-77
2022/04/01 11:23:06;;;;;;;46.88;8.63;;;;;;;26.44;36.38;98141.09;5038455;28;20664;-77
2022/04/01 11:25:54;;;;;;;42.05;7.82;;;;;;;26.34;36.50;98132.19;5040016;28;20197;-76
2022/04/01 11:28:24;;;;;;;41.00;8.07;;;;;;;26.24;36.62;98115.31;5041991;28;20658;-77
2022/04/01 11:31:22;;;;;;;43.50;8.57;;;;;;;26.86;36.27;98131.50;5041971;28;20200;-77
2022/04/01 11:34:01;;;;;;;56.92;9.57;;;;;;;27.03;35.78;98105.19;5043860;28;20215;-78
2022/04/01 11:36:28;;;;;;;42.00;7.70;;;;;;;27.09;33.07;98106.50;5044755;28;20200;-77
2022/04/01 11:38:56;;;;;;;52.35;9.32;;;;;;;27.41;33.24;98109.09;5043737;28;20211;-78
2022/04/01 11:41:23;;;;;;;46.92;8.13;;;;;;;27.05;31.92;98123.69;5042980;28;20620;-77
2022/04/01 11:43:51;;;;;;;55.70;8.63;;;;;;;26.79;32.78;98127.63;5041211;28;20640;-76
2022/04/01 11:46:17;;;;;;;39.53;8.68;;;;;;;26.82;32.66;98119.41;5032672;28;20715;-76
2022/04/01 11:48:48;;;;;;;45.65;8.40;;;;;;;26.82;32.86;98120.28;5016767;28;20269;-74